createdAt,value
2019-03-10T03:07:45.191Z,19.9
2019-03-10T03:08:35.477Z,19.9
2019-03-10T03:09:25.890Z,19.9
2019-03-10T03:10:16.099Z,19.8
2019-03-10T03:11:04.884Z,19.7
2019-03-10T03:11:55.960Z,19.7
2019-03-10T03:12:46.440Z,19.6
2019-03-10T03:13:36.133Z,19.5
2019-03-10T03:14:26.692Z,19.5
2019-03-10T03:15:16.717Z,19.4
2019-03-10T03:16:06.250Z,19.8
2019-03-10T03:16:59.327Z,20.6
2019-03-10T03:17:45.586Z,21.2
2019-03-10T03:18:36.114Z,21.6
2019-03-10T03:19:25.453Z,22
2019-03-10T03:20:16.862Z,22.3
2019-03-10T03:21:07.057Z,22.6
2019-03-10T03:21:57.237Z,22.8
2019-03-10T03:22:46.778Z,23
2019-03-10T03:23:36.812Z,23.2
2019-03-10T03:24:27.384Z,23.3
2019-03-10T03:25:16.908Z,23.5
2019-03-10T03:26:06.063Z,23.6
2019-03-10T03:26:57.642Z,23.8
2019-03-10T03:27:46.557Z,23.9
2019-03-10T03:28:36.991Z,24
2019-03-10T03:29:27.556Z,24.1
2019-03-10T03:30:17.602Z,24.2
2019-03-10T03:31:08.055Z,24.3
2019-03-10T03:31:56.913Z,24
2019-03-10T03:32:48.521Z,23.4
2019-03-10T03:33:38.131Z,23
2019-03-10T03:34:27.497Z,22.6
2019-03-10T03:35:18.387Z,22.3
2019-03-10T03:36:08.043Z,22.1
2019-03-10T03:36:57.972Z,21.9
2019-03-10T03:37:47.605Z,21.8
2019-03-10T03:38:38.853Z,21.6
2019-03-10T03:39:27.494Z,21.5
2019-03-10T03:40:17.391Z,21.4
2019-03-10T03:41:08.376Z,21.3
2019-03-10T03:41:57.563Z,21.2
2019-03-10T03:43:38.522Z,21.1
2019-03-10T03:44:27.775Z,20.9
2019-03-10T03:45:18.090Z,20.9
2019-03-10T03:46:07.773Z,20.8
2019-03-10T03:46:58.249Z,20.8
2019-03-10T03:47:48.570Z,20.7
2019-03-10T03:48:38.035Z,20.6
2019-03-10T03:49:28.932Z,20.5
2019-03-10T03:50:17.571Z,20.4
2019-03-10T03:51:08.128Z,20.4
2019-03-10T03:51:59.538Z,20.3
2019-03-10T03:52:48.396Z,20.3
2019-03-10T03:53:38.994Z,20.2
2019-03-10T03:54:28.557Z,20.1
2019-03-10T03:55:18.275Z,20.1
2019-03-10T03:56:08.300Z,20
2019-03-10T03:56:58.176Z,19.9
2019-03-10T03:57:48.698Z,19.9
2019-03-10T03:58:39.698Z,19.8
2019-03-10T03:59:29.001Z,19.8
2019-03-10T04:00:18.396Z,19.7
2019-03-10T04:01:09.334Z,19.6
2019-03-10T04:02:00.114Z,19.6
2019-03-10T04:02:49.445Z,19.5
2019-03-10T04:03:39.966Z,19.5
2019-03-10T04:04:29.782Z,19.6
2019-03-10T04:05:19.622Z,20.1
2019-03-10T04:06:08.814Z,20.8
2019-03-10T04:06:58.399Z,21.3
2019-03-10T04:07:50.161Z,21.8
2019-03-10T04:08:39.054Z,22.1
2019-03-10T04:09:29.643Z,22.4
2019-03-10T04:10:18.801Z,22.6
2019-03-10T04:11:09.511Z,22.8
2019-03-10T04:12:00.056Z,23
2019-03-10T04:12:48.449Z,23.2
2019-03-10T04:13:40.129Z,23.3
2019-03-10T04:14:31.029Z,23.5
2019-03-10T04:15:20.799Z,23.7
2019-03-10T04:16:09.398Z,23.8
2019-03-10T04:17:00.150Z,23.9
2019-03-10T04:17:49.907Z,24
2019-03-10T04:18:41.367Z,24.1
2019-03-10T04:19:30.283Z,24.2
2019-03-10T04:20:20.828Z,24.3
2019-03-10T04:21:11.324Z,23.7
2019-03-10T04:22:01.209Z,23.2
2019-03-10T04:22:51.904Z,22.8
2019-03-10T04:23:41.699Z,22.4
2019-03-10T04:24:30.128Z,22.3
2019-03-10T04:25:20.759Z,22
2019-03-10T04:26:11.111Z,21.8
2019-03-10T04:27:01.083Z,21.7
2019-03-10T04:27:51.360Z,21.6
2019-03-10T04:28:41.591Z,21.5
2019-03-10T04:29:31.847Z,21.4
2019-03-10T04:30:21.945Z,21.3
2019-03-10T04:31:11.682Z,21.2
2019-03-10T04:32:51.780Z,21
2019-03-10T04:33:42.138Z,20.9
2019-03-10T04:34:31.593Z,20.9
2019-03-10T04:35:21.671Z,20.8
2019-03-10T04:36:12.265Z,20.7
2019-03-10T04:37:02.941Z,20.6
2019-03-10T04:37:52.181Z,20.6
2019-03-10T04:38:42.351Z,20.5
2019-03-10T04:39:31.604Z,20.4
2019-03-10T04:40:22.306Z,20.4
2019-03-10T04:41:12.952Z,20.3
2019-03-10T04:42:02.372Z,20.2
2019-03-10T04:42:51.566Z,20.1
2019-03-10T04:43:41.952Z,20.1
2019-03-10T04:44:32.577Z,20
2019-03-10T04:45:22.294Z,19.9
2019-03-10T04:46:12.752Z,19.9
2019-03-10T04:47:03.545Z,19.8
2019-03-10T04:47:52.202Z,19.8
2019-03-10T04:48:43.724Z,19.7
2019-03-10T04:49:33.156Z,19.6
2019-03-10T04:50:25.229Z,19.6
2019-03-10T04:51:13.614Z,19.5
2019-03-10T04:52:02.204Z,19.4
2019-03-10T04:52:53.230Z,19.4
2019-03-10T04:53:43.509Z,19.8
2019-03-10T04:54:32.696Z,20.6
2019-03-10T04:55:23.286Z,21.2
2019-03-10T04:56:13.106Z,21.6
2019-03-10T04:57:05.173Z,21.9
2019-03-10T04:57:53.744Z,22.3
2019-03-10T04:58:43.300Z,22.5
2019-03-10T04:59:33.654Z,22.8
2019-03-10T05:00:24.054Z,23
2019-03-10T05:01:13.758Z,23.2
2019-03-10T05:02:03.838Z,23.3
2019-03-10T05:02:54.433Z,23.5
2019-03-10T05:03:43.496Z,23.6
2019-03-10T05:04:36.493Z,23.8
2019-03-10T05:05:23.789Z,23.9
2019-03-10T05:06:14.208Z,24
2019-03-10T05:07:03.643Z,24.1
2019-03-10T05:07:53.643Z,24.3
2019-03-10T05:08:44.540Z,24.2
2019-03-10T05:09:34.338Z,23.6
2019-03-10T05:10:26.868Z,23.1
2019-03-10T05:11:14.251Z,22.7
2019-03-10T05:12:04.519Z,22.4
2019-03-10T05:12:53.775Z,22.2
2019-03-10T05:13:45.520Z,22
2019-03-10T05:14:34.959Z,21.8
2019-03-10T05:15:25.083Z,21.6
2019-03-10T05:16:14.658Z,21.5
2019-03-10T05:17:04.912Z,21.4
2019-03-10T05:17:54.652Z,21.3
2019-03-10T05:18:44.740Z,21.2
2019-03-10T05:20:25.675Z,21
2019-03-10T05:21:15.050Z,20.9
2019-03-10T05:22:05.227Z,20.9
2019-03-10T05:22:55.667Z,20.8
2019-03-10T05:23:45.133Z,20.8
2019-03-10T05:24:34.926Z,20.6
2019-03-10T05:25:25.151Z,20.6
2019-03-10T05:26:15.103Z,20.5
2019-03-10T05:27:05.112Z,20.4
2019-03-10T05:27:54.327Z,20.4
2019-03-10T05:28:45.727Z,20.3
2019-03-10T05:29:36.332Z,20.3
2019-03-10T05:30:26.374Z,20.2
2019-03-10T05:31:15.703Z,20.1
2019-03-10T05:32:06.387Z,20.1
2019-03-10T05:32:56.359Z,19.9
2019-03-10T05:33:46.172Z,19.9
2019-03-10T05:34:35.369Z,19.8
2019-03-10T05:35:26.026Z,19.8
2019-03-10T05:36:16.569Z,19.7
2019-03-10T05:37:06.066Z,19.6
2019-03-10T05:37:56.676Z,19.6
2019-03-10T05:38:46.433Z,19.5
2019-03-10T05:39:35.926Z,19.4
2019-03-10T05:40:26.560Z,19.4
2019-03-10T05:41:15.563Z,19.6
2019-03-10T05:42:07.051Z,20.4
2019-03-10T05:42:56.155Z,21.1
2019-03-10T05:43:47.389Z,21.6
2019-03-10T05:44:37.157Z,21.9
2019-03-10T05:45:26.925Z,22.3
2019-03-10T05:46:17.281Z,22.6
2019-03-10T05:47:06.478Z,22.8
2019-03-10T05:47:57.164Z,23
2019-03-10T05:48:47.900Z,23.2
2019-03-10T05:49:36.178Z,23.4
2019-03-10T05:50:26.711Z,23.6
2019-03-10T05:51:17.098Z,23.7
2019-03-10T05:52:06.613Z,23.8
2019-03-10T05:52:57.556Z,23.9
2019-03-10T05:53:45.928Z,24.1
2019-03-10T05:54:37.322Z,24.2
2019-03-10T05:55:28.208Z,24.3
2019-03-10T05:56:17.470Z,23.9
2019-03-10T05:57:08.353Z,23.4
2019-03-10T05:57:57.880Z,22.9
2019-03-10T05:58:48.252Z,22.6
2019-03-10T05:59:37.708Z,22.3
2019-03-10T06:00:27.196Z,22.1
2019-03-10T06:01:17.893Z,21.9
2019-03-10T06:02:08.727Z,21.8
2019-03-10T06:02:57.072Z,21.6
2019-03-10T06:05:45.505Z,21.3
2019-03-10T06:06:35.710Z,21.2
2019-03-10T06:08:15.616Z,21
2019-03-10T06:09:04.872Z,20.9
2019-03-10T06:09:55.140Z,20.9
2019-03-10T06:10:45.473Z,20.8
2019-03-10T06:11:36.082Z,20.7
2019-03-10T06:12:26.434Z,20.6
2019-03-10T06:13:15.664Z,20.6
2019-03-10T06:14:05.457Z,20.4
2019-03-10T06:14:56.082Z,20.4
2019-03-10T06:15:46.109Z,20.3
2019-03-10T06:16:36.492Z,20.3
2019-03-10T06:17:28.022Z,20.2
2019-03-10T06:18:21.777Z,20.1
2019-03-10T06:19:07.181Z,20.1
2019-03-10T06:19:57.000Z,20
2019-03-10T06:20:46.261Z,19.9
2019-03-10T06:21:36.308Z,19.9
2019-03-10T06:22:26.324Z,19.8
2019-03-10T06:23:16.194Z,19.8
2019-03-10T06:24:06.713Z,19.7
2019-03-10T06:24:57.054Z,19.6
2019-03-10T06:25:45.809Z,19.6
2019-03-10T06:26:37.724Z,19.5
2019-03-10T06:27:27.403Z,19.4
2019-03-10T06:28:16.728Z,19.6
2019-03-10T06:29:07.408Z,20.3
2019-03-10T06:29:57.157Z,21.1
2019-03-10T06:30:47.318Z,21.6
2019-03-10T06:31:36.851Z,22.1
2019-03-10T06:32:27.607Z,22.4
2019-03-10T06:33:16.593Z,22.7
2019-03-10T06:34:06.956Z,22.9
2019-03-10T06:34:57.506Z,23.2
2019-03-10T06:35:47.541Z,23.4
2019-03-10T06:36:37.055Z,23.6
2019-03-10T06:37:27.720Z,23.8
2019-03-10T06:38:17.249Z,23.9
2019-03-10T06:39:07.888Z,24.1
2019-03-10T06:39:57.321Z,24.3
2019-03-10T06:40:47.988Z,24.3
2019-03-10T06:41:37.510Z,24
2019-03-10T06:42:28.109Z,23.4
2019-03-10T06:43:17.865Z,23
2019-03-10T06:44:08.991Z,22.6
2019-03-10T06:44:58.275Z,22.3
2019-03-10T06:45:47.523Z,22.1
2019-03-10T06:46:37.340Z,21.9
2019-03-10T06:47:27.685Z,21.8
2019-03-10T06:48:17.420Z,21.7
2019-03-10T06:49:09.121Z,21.6
2019-03-10T06:49:58.872Z,21.4
2019-03-10T06:50:48.938Z,21.3
2019-03-10T06:51:38.673Z,21.3
2019-03-10T06:52:29.107Z,21.2
2019-03-10T06:53:18.925Z,21.1
2019-03-10T06:54:09.155Z,21
2019-03-10T06:54:59.315Z,20.9
2019-03-10T06:55:48.727Z,20.8
2019-03-10T06:56:39.617Z,20.8
2019-03-10T06:57:29.462Z,20.7
2019-03-10T06:58:18.402Z,20.6
2019-03-10T06:59:09.522Z,20.6
2019-03-10T06:59:59.445Z,20.5
2019-03-10T07:00:48.852Z,20.4
2019-03-10T07:01:39.764Z,20.3
2019-03-10T07:02:29.814Z,20.3
2019-03-10T07:03:19.831Z,20.2
2019-03-10T07:06:14.706Z,20
2019-03-10T07:06:35.392Z,19.9
2019-03-10T07:07:25.701Z,19.9
2019-03-10T07:08:15.012Z,19.8
2019-03-10T07:09:04.841Z,19.8
2019-03-10T07:09:56.289Z,19.7
2019-03-10T07:10:45.981Z,19.6
2019-03-10T07:11:36.123Z,19.6
2019-03-10T07:12:25.826Z,19.5
2019-03-10T07:13:16.210Z,19.5
2019-03-10T07:14:06.230Z,19.6
2019-03-10T07:14:55.764Z,20.4
2019-03-10T07:16:36.163Z,21.7
2019-03-10T07:17:25.378Z,22.1
2019-03-10T07:18:15.428Z,22.5
2019-03-10T07:19:04.985Z,22.8
2019-03-10T07:19:55.821Z,23.1
2019-03-10T07:20:45.921Z,23.3
2019-03-10T07:21:34.843Z,23.5
2019-03-10T07:22:26.860Z,23.8
2019-03-10T07:23:16.715Z,23.9
2019-03-10T07:24:06.518Z,24.1
2019-03-10T07:24:56.475Z,24.3
2019-03-10T07:25:45.135Z,24.4
2019-03-10T07:26:36.070Z,24.2
2019-03-10T07:27:26.915Z,23.6
2019-03-10T07:28:16.165Z,23.1
2019-03-10T07:29:06.506Z,22.8
2019-03-10T07:29:56.778Z,22.4
2019-03-10T07:30:46.863Z,22.3
2019-03-10T07:31:36.927Z,22.1
2019-03-10T07:32:26.598Z,21.9
2019-03-10T07:33:17.122Z,21.8
2019-03-10T07:34:06.540Z,21.6
2019-03-10T07:34:57.985Z,21.5
2019-03-10T07:35:47.786Z,21.4
2019-03-10T07:36:37.063Z,21.3
2019-03-10T07:37:27.639Z,21.3
2019-03-10T07:39:07.725Z,21.1
2019-03-10T07:39:57.554Z,21
2019-03-10T07:40:46.780Z,20.9
2019-03-10T07:41:38.246Z,20.8
2019-03-10T07:42:28.546Z,20.8
2019-03-10T07:43:18.109Z,20.7
2019-03-10T07:44:07.874Z,20.6
2019-03-10T07:44:57.874Z,20.6
2019-03-10T07:45:47.931Z,20.5
2019-03-10T07:46:38.889Z,20.4
2019-03-10T07:47:28.369Z,20.3
2019-03-10T07:48:17.639Z,20.3
2019-03-10T07:49:08.519Z,20.3
2019-03-10T07:49:58.004Z,20.1
2019-03-10T07:50:47.831Z,20.1
2019-03-10T07:51:38.161Z,20.1
2019-03-10T07:52:28.606Z,20
2019-03-10T07:53:18.759Z,19.9
2019-03-10T07:54:09.160Z,19.9
2019-03-10T07:54:58.646Z,19.8
2019-03-10T07:55:48.161Z,19.7
2019-03-10T07:56:39.034Z,19.6
2019-03-10T07:57:28.330Z,19.6
2019-03-10T07:58:18.648Z,19.6
2019-03-10T07:59:08.756Z,19.8
2019-03-10T07:59:57.871Z,20.7
2019-03-10T08:00:49.626Z,21.4
2019-03-10T08:01:38.928Z,22
2019-03-10T08:02:29.325Z,22.4
2019-03-10T08:03:19.069Z,22.8
2019-03-10T08:04:08.883Z,23.1
2019-03-10T08:04:58.213Z,23.4
2019-03-10T08:05:49.002Z,23.6
2019-03-10T08:06:38.588Z,23.8
2019-03-10T08:07:29.414Z,24
2019-03-10T08:08:18.691Z,24.2
2019-03-10T08:09:10.213Z,24.4
2019-03-10T08:09:59.518Z,24.6
2019-03-10T08:10:49.235Z,24.1
2019-03-10T08:11:39.333Z,23.5
2019-03-10T08:12:29.300Z,23.1
2019-03-10T08:13:19.426Z,22.7
2019-03-10T08:14:09.213Z,22.4
2019-03-10T08:15:00.110Z,22.2
2019-03-10T08:15:50.180Z,22
2019-03-10T08:16:39.902Z,21.8
2019-03-10T08:17:32.975Z,21.8
2019-03-10T08:18:20.305Z,21.6
2019-03-10T08:19:10.173Z,21.5
2019-03-10T08:20:00.883Z,21.4
2019-03-10T08:20:51.037Z,21.3
2019-03-10T08:21:40.564Z,21.3
2019-03-10T08:23:20.455Z,21.1
2019-03-10T08:24:11.834Z,21
2019-03-10T08:25:01.322Z,20.9
2019-03-10T08:25:50.627Z,20.9
2019-03-10T08:26:41.696Z,20.8
2019-03-10T08:27:30.724Z,20.8
2019-03-10T08:28:23.847Z,20.6
2019-03-10T08:29:11.362Z,20.6
2019-03-10T08:30:01.364Z,20.5
2019-03-10T08:30:51.816Z,20.4
2019-03-10T08:31:41.616Z,20.4
2019-03-10T08:32:30.596Z,20.3
2019-03-10T08:33:20.664Z,20.3
2019-03-10T08:34:11.057Z,20.2
2019-03-10T08:35:01.909Z,20.1
2019-03-10T08:35:51.949Z,20.1
2019-03-10T08:36:41.712Z,20
2019-03-10T08:37:32.320Z,19.9
2019-03-10T08:38:21.566Z,19.9
2019-03-10T08:39:11.073Z,19.8
2019-03-10T08:40:01.439Z,19.8
2019-03-10T08:40:51.725Z,19.7
2019-03-10T08:41:42.006Z,19.6
2019-03-10T08:42:32.379Z,19.6
2019-03-10T08:43:22.576Z,20
2019-03-10T08:44:12.724Z,20.9
2019-03-10T08:45:01.236Z,21.6
2019-03-10T08:45:53.191Z,22.2
2019-03-10T08:46:42.918Z,22.6
2019-03-10T08:47:31.418Z,23
2019-03-10T08:48:22.471Z,23.3
2019-03-10T08:49:12.888Z,23.6
2019-03-10T08:50:02.631Z,23.8
2019-03-10T08:50:53.235Z,24.1
2019-03-10T08:51:43.008Z,24.3
2019-03-10T08:52:33.347Z,24.4
2019-03-10T08:53:22.600Z,24.6
2019-03-10T08:54:13.268Z,24.2
2019-03-10T08:55:03.358Z,23.6
2019-03-10T08:55:52.921Z,23.1
2019-03-10T08:56:43.718Z,22.8
2019-03-10T08:57:34.332Z,22.5
2019-03-10T08:58:24.099Z,22.3
2019-03-10T08:59:13.570Z,22.1
2019-03-10T09:00:03.040Z,21.9
2019-03-10T09:00:53.991Z,21.8
2019-03-10T09:01:43.817Z,21.8
2019-03-10T09:02:33.770Z,21.6
2019-03-10T09:03:23.640Z,21.5
2019-03-10T09:04:13.908Z,21.4
2019-03-10T09:05:04.457Z,21.3
2019-03-10T09:05:53.996Z,21.3
2019-03-10T09:06:46.839Z,21.2
2019-03-10T09:07:33.639Z,21.1
2019-03-10T09:08:24.459Z,21
2019-03-10T09:09:14.554Z,20.9
2019-03-10T09:10:04.929Z,20.9
2019-03-10T09:10:54.029Z,20.8
2019-03-10T09:11:43.966Z,20.8
2019-03-10T09:12:34.501Z,20.7
2019-03-10T09:13:24.924Z,20.6
2019-03-10T09:14:14.647Z,20.5
2019-03-10T09:15:05.419Z,20.4
2019-03-10T09:15:53.974Z,20.4
2019-03-10T09:16:45.761Z,20.3
2019-03-10T09:17:34.926Z,20.3
2019-03-10T09:18:24.681Z,20.2
2019-03-10T09:19:14.256Z,20.1
2019-03-10T09:20:05.296Z,20.1
2019-03-10T09:20:54.883Z,20
2019-03-10T09:21:45.560Z,19.9
2019-03-10T09:22:35.286Z,19.9
2019-03-10T09:23:25.577Z,19.8
2019-03-10T09:24:15.398Z,19.8
2019-03-10T09:25:05.483Z,19.7
2019-03-10T09:25:56.124Z,19.6
2019-03-10T09:26:44.459Z,19.6
2019-03-10T09:27:37.379Z,19.6
2019-03-10T09:28:24.853Z,19.5
2019-03-10T09:29:15.818Z,19.4
2019-03-10T09:30:06.242Z,19.4
2019-03-10T09:30:54.751Z,19.3
2019-03-10T09:31:46.564Z,19.3
2019-03-10T09:32:38.872Z,19.2
2019-03-10T09:33:26.390Z,19.1
2019-03-10T09:34:15.641Z,19.1
2019-03-10T09:35:06.473Z,19.1
2019-03-10T09:35:55.646Z,19
2019-03-10T09:36:45.440Z,18.9
2019-03-10T09:37:35.853Z,18.9
2019-03-10T09:38:26.947Z,18.9
2019-03-10T09:39:16.184Z,18.8
2019-03-10T09:40:06.840Z,18.8
2019-03-10T09:40:56.641Z,18.8
2019-03-10T09:42:36.366Z,18.6
2019-03-10T09:43:27.356Z,18.6
2019-03-10T09:44:16.603Z,18.5
2019-03-10T09:45:07.457Z,18.5
2019-03-10T09:45:56.982Z,18.4
2019-03-10T09:46:46.045Z,18.4
2019-03-10T09:47:36.534Z,18.3
2019-03-10T09:48:26.577Z,18.3
2019-03-10T09:49:17.424Z,18.3
2019-03-10T09:50:06.428Z,18.3
2019-03-10T09:50:56.749Z,18.2
2019-03-10T09:51:47.352Z,18.2
2019-03-10T09:52:36.584Z,18.1
2019-03-10T09:53:27.481Z,18.1
2019-03-10T09:54:17.540Z,18.1
2019-03-10T09:55:09.909Z,18
2019-03-10T09:55:56.916Z,17.9
2019-03-10T09:56:46.387Z,17.9
2019-03-10T09:57:36.741Z,17.9
2019-03-10T09:58:27.402Z,17.9
2019-03-10T09:59:18.464Z,17.9
2019-03-10T10:00:07.669Z,17.8
2019-03-10T10:00:57.520Z,17.8
2019-03-10T10:01:47.594Z,17.8
2019-03-10T10:02:37.872Z,17.8
2019-03-10T10:03:29.029Z,17.7
2019-03-10T10:04:18.648Z,17.7
2019-03-10T10:06:44.437Z,17.6
2019-03-10T10:07:34.263Z,17.6
2019-03-10T10:08:25.461Z,17.5
2019-03-10T10:09:15.199Z,17.5
2019-03-10T10:10:05.065Z,17.4
2019-03-10T10:10:56.039Z,17.4
2019-03-10T10:11:45.925Z,17.4
2019-03-10T10:12:35.386Z,17.4
2019-03-10T10:13:25.706Z,17.4
2019-03-10T10:14:16.613Z,17.4
2019-03-10T10:15:06.167Z,17.3
2019-03-10T10:15:56.439Z,17.3
2019-03-10T10:16:45.708Z,17.3
2019-03-10T10:17:34.891Z,17.3
2019-03-10T10:18:26.013Z,17.3
2019-03-10T10:19:15.910Z,17.3
2019-03-10T10:20:06.286Z,17.3
2019-03-10T10:20:56.771Z,17.2
2019-03-10T10:21:45.743Z,17.2
2019-03-10T10:22:36.083Z,17.1
2019-03-10T10:23:26.413Z,17.1
2019-03-10T10:24:15.720Z,17.1
2019-03-10T10:25:06.605Z,17.1
2019-03-10T10:25:55.848Z,17.1
2019-03-10T10:26:46.210Z,17.1
2019-03-10T10:27:36.879Z,17.1
2019-03-10T10:30:06.458Z,16.9
2019-03-10T10:30:56.490Z,16.9
2019-03-10T10:31:46.042Z,16.9
2019-03-10T10:32:36.865Z,16.9
2019-03-10T10:33:26.750Z,16.9
2019-03-10T10:34:17.760Z,16.9
2019-03-10T10:35:07.827Z,16.9
2019-03-10T10:35:56.832Z,16.9
2019-03-10T10:36:45.794Z,16.9
2019-03-10T10:37:40.278Z,16.9
2019-03-10T10:38:27.100Z,16.9
2019-03-10T10:39:17.902Z,16.9
2019-03-10T10:40:08.454Z,16.9
2019-03-10T10:40:57.143Z,16.9
2019-03-10T10:41:47.767Z,16.9
2019-03-10T10:42:38.389Z,16.8
2019-03-10T10:43:27.659Z,16.9
2019-03-10T10:44:18.202Z,16.8
2019-03-10T10:45:07.846Z,16.8
2019-03-10T10:46:00.906Z,16.8
2019-03-10T10:46:48.379Z,16.8
2019-03-10T10:47:37.077Z,16.8
2019-03-10T10:48:27.934Z,16.7
2019-03-10T10:49:18.397Z,16.7
2019-03-10T10:50:09.104Z,16.6
2019-03-10T10:50:58.691Z,16.6
2019-03-10T10:51:49.257Z,16.6
2019-03-10T10:52:38.518Z,16.6
2019-03-10T10:53:30.225Z,16.6
2019-03-10T10:54:18.289Z,16.6
2019-03-10T10:55:08.556Z,16.6
2019-03-10T10:55:58.774Z,16.6
2019-03-10T10:56:49.447Z,16.5
2019-03-10T10:57:39.005Z,16.5
2019-03-10T10:58:28.963Z,16.5
2019-03-10T10:59:19.031Z,16.5
2019-03-10T11:00:08.564Z,16.4
2019-03-10T11:00:59.968Z,16.4
2019-03-10T11:01:48.662Z,16.4
2019-03-10T11:02:39.591Z,16.4
2019-03-10T11:03:29.184Z,16.4
2019-03-10T11:04:19.133Z,16.4
2019-03-10T11:05:09.281Z,16.3
2019-03-10T11:05:59.223Z,16.4
2019-03-10T11:06:49.620Z,16.3
2019-03-10T11:07:39.668Z,16.3
2019-03-10T11:08:29.825Z,16.3
2019-03-10T11:09:19.245Z,16.3
2019-03-10T11:10:10.445Z,16.3
2019-03-10T11:10:59.348Z,16.3
2019-03-10T11:11:50.342Z,16.3
2019-03-10T11:12:40.532Z,16.3
2019-03-10T11:13:29.588Z,16.3
2019-03-10T11:14:18.993Z,16.2
2019-03-10T11:15:11.033Z,16.2
2019-03-10T11:16:01.435Z,16.2
2019-03-10T11:16:52.740Z,16.2
2019-03-10T11:17:40.010Z,16.1
2019-03-10T11:18:29.578Z,16.2
2019-03-10T11:19:20.770Z,16.1
2019-03-10T11:20:10.335Z,16.1
2019-03-10T11:21:02.956Z,16.1
2019-03-10T11:21:50.397Z,16.1
2019-03-10T11:22:40.933Z,16.1
2019-03-10T11:23:29.677Z,16.1
2019-03-10T11:24:21.338Z,16.1
2019-03-10T11:25:09.804Z,16.1
2019-03-10T11:25:59.693Z,16.1
2019-03-10T11:26:50.739Z,16.1
2019-03-10T11:27:40.599Z,16.1
2019-03-10T11:28:30.942Z,16.1
2019-03-10T11:29:21.007Z,16.1
2019-03-10T11:30:09.524Z,16.1
2019-03-10T11:31:00.049Z,16.1
2019-03-10T11:31:50.390Z,16.1
2019-03-10T11:32:40.757Z,16.1
2019-03-10T11:33:34.272Z,16.1
2019-03-10T11:34:20.290Z,16.2
2019-03-10T11:35:10.897Z,16.2
2019-03-10T11:36:01.981Z,16.2
2019-03-10T11:36:52.837Z,16.2
2019-03-10T11:37:41.643Z,16.1
2019-03-10T11:38:31.381Z,16.2
2019-03-10T11:39:21.488Z,16.1
2019-03-10T11:40:11.230Z,16.2
2019-03-10T11:41:01.280Z,16.1
2019-03-10T11:41:53.751Z,16.1
2019-03-10T11:42:42.550Z,16.1
2019-03-10T11:43:31.581Z,16.1
2019-03-10T11:44:21.616Z,16.1
2019-03-10T11:45:11.587Z,16.1
2019-03-10T11:46:00.953Z,16.2
2019-03-10T11:46:52.811Z,16.1
2019-03-10T11:47:42.375Z,16.2
2019-03-10T11:48:33.245Z,16.2
2019-03-10T11:49:22.723Z,16.2
2019-03-10T11:50:15.685Z,16.2
2019-03-10T11:51:03.663Z,16.1
2019-03-10T11:51:52.998Z,16.2
2019-03-10T11:52:42.476Z,16.2
2019-03-10T11:53:34.048Z,16.2
2019-03-10T11:54:22.825Z,16.2
2019-03-10T11:55:14.942Z,16.2
2019-03-10T11:56:03.521Z,16.2
2019-03-10T11:56:53.350Z,16.2
2019-03-10T11:57:43.082Z,16.2
2019-03-10T11:58:36.363Z,16.2
2019-03-10T11:59:22.421Z,16.2
2019-03-10T12:00:13.125Z,16.2
2019-03-10T12:01:03.077Z,16.2
2019-03-10T12:01:53.670Z,16.2
2019-03-10T12:02:43.427Z,16.2
2019-03-10T12:03:33.220Z,16.1
2019-03-10T12:04:23.033Z,16.1
2019-03-10T12:06:45.175Z,16.1
2019-03-10T12:07:34.957Z,16.1
2019-03-10T12:08:25.122Z,16.1
2019-03-10T12:09:15.368Z,16.2
2019-03-10T12:10:06.010Z,16.2
2019-03-10T12:10:55.472Z,16.2
2019-03-10T12:11:45.344Z,16.2
2019-03-10T12:12:35.577Z,16.2
2019-03-10T12:13:25.711Z,16.1
2019-03-10T12:14:15.539Z,16.1
2019-03-10T12:15:06.105Z,16.2
2019-03-10T12:15:55.871Z,16.1
2019-03-10T12:16:45.975Z,16.2
2019-03-10T12:17:36.496Z,16.2
2019-03-10T12:18:25.799Z,16.2
2019-03-10T12:19:16.092Z,16.2
2019-03-10T12:20:05.459Z,16.2
2019-03-10T12:20:55.674Z,16.2
2019-03-10T12:21:45.769Z,16.2
2019-03-10T12:22:36.683Z,16.2
2019-03-10T12:23:27.031Z,16.3
2019-03-10T12:24:15.788Z,16.3
2019-03-10T12:25:06.579Z,16.3
2019-03-10T12:25:56.278Z,16.3
2019-03-10T12:26:46.648Z,16.3
2019-03-10T12:27:36.816Z,16.3
2019-03-10T12:28:26.436Z,16.4
2019-03-10T12:29:16.291Z,16.3
2019-03-10T12:30:07.123Z,16.3
2019-03-10T12:30:56.332Z,16.3
2019-03-10T12:31:47.551Z,16.3
2019-03-10T12:32:37.016Z,16.3
2019-03-10T12:33:25.841Z,16.3
2019-03-10T12:34:17.468Z,16.3
2019-03-10T12:35:06.829Z,16.3
2019-03-10T12:35:56.728Z,16.3
2019-03-10T12:36:49.831Z,16.3
2019-03-10T12:37:37.949Z,16.3
2019-03-10T12:38:28.023Z,16.3
2019-03-10T12:39:19.758Z,16.3
2019-03-10T12:40:07.698Z,16.3
2019-03-10T12:40:57.063Z,16.3
2019-03-10T12:42:00.530Z,16.3
2019-03-10T12:42:37.999Z,16.3
2019-03-10T12:43:27.082Z,16.3
2019-03-10T12:44:17.635Z,16.3
2019-03-10T12:45:07.958Z,16.3
2019-03-10T12:45:58.300Z,16.3
2019-03-10T12:46:48.340Z,16.3
2019-03-10T12:47:37.706Z,16.3
2019-03-10T12:48:28.722Z,16.3
2019-03-10T12:49:18.567Z,16.3
2019-03-10T12:50:07.934Z,16.3
2019-03-10T12:50:57.862Z,16.3
2019-03-10T12:51:48.175Z,16.3
2019-03-10T12:52:38.745Z,16.3
2019-03-10T12:53:28.802Z,16.3
2019-03-10T12:54:18.307Z,16.3
2019-03-10T12:55:09.329Z,16.3
2019-03-10T12:55:58.171Z,16.3
2019-03-10T12:56:49.526Z,16.3
2019-03-10T12:57:38.902Z,16.2
2019-03-10T12:58:29.161Z,16.3
2019-03-10T12:59:17.897Z,16.3
2019-03-10T13:00:08.533Z,16.3
2019-03-10T13:01:11.731Z,16.3
2019-03-10T13:01:49.684Z,16.3
2019-03-10T13:02:39.246Z,16.3
2019-03-10T13:03:29.135Z,16.3
2019-03-10T13:04:22.399Z,16.3
2019-03-10T13:05:09.095Z,16.3
2019-03-10T13:05:59.483Z,16.3
2019-03-10T13:06:49.466Z,16.3
2019-03-10T13:07:39.581Z,16.3
2019-03-10T13:08:28.793Z,16.3
2019-03-10T13:09:18.841Z,16.3
2019-03-10T13:10:09.500Z,16.2
2019-03-10T13:11:00.151Z,16.2
2019-03-10T13:11:49.942Z,16.2
2019-03-10T13:12:40.299Z,16.2
2019-03-10T13:13:29.202Z,16.2
2019-03-10T13:14:19.778Z,16.2
2019-03-10T13:15:09.259Z,16.2
2019-03-10T13:15:59.688Z,16.2
2019-03-10T13:16:49.445Z,16.2
2019-03-10T13:17:39.754Z,16.2
2019-03-10T13:18:29.976Z,16.3
2019-03-10T13:19:20.288Z,16.2
2019-03-10T13:20:10.528Z,16.3
2019-03-10T13:21:00.353Z,16.2
2019-03-10T13:21:51.734Z,16.2
2019-03-10T13:22:40.798Z,16.1
2019-03-10T13:23:30.693Z,16.1
2019-03-10T13:24:20.227Z,16.2
2019-03-10T13:25:10.130Z,16.1
2019-03-10T13:26:00.244Z,16.2
2019-03-10T13:26:50.798Z,16.2
2019-03-10T13:27:40.065Z,16.2
2019-03-10T13:28:30.435Z,16.3
2019-03-10T13:29:20.197Z,16.3
2019-03-10T13:30:11.015Z,16.3
2019-03-10T13:31:00.409Z,16.3
2019-03-10T13:31:51.195Z,16.3
2019-03-10T13:32:40.375Z,16.3
2019-03-10T13:33:30.825Z,16.3
2019-03-10T13:34:21.182Z,16.3
2019-03-10T13:35:10.657Z,16.3
2019-03-10T13:36:03.813Z,16.3
2019-03-10T13:36:50.690Z,16.3
2019-03-10T13:37:41.007Z,16.3
2019-03-10T13:38:30.780Z,16.3
2019-03-10T13:39:21.139Z,16.3
2019-03-10T13:40:11.258Z,16.3
2019-03-10T13:41:04.840Z,16.3
2019-03-10T13:41:51.574Z,16.3
2019-03-10T13:42:40.784Z,16.3
2019-03-10T13:43:31.627Z,16.3
2019-03-10T13:44:24.602Z,16.3
2019-03-10T13:45:12.212Z,16.3
2019-03-10T13:46:01.870Z,16.3
2019-03-10T13:46:52.270Z,16.3
2019-03-10T13:47:41.763Z,16.2
2019-03-10T13:48:32.364Z,16.2
2019-03-10T13:49:21.912Z,16.2
2019-03-10T13:50:12.222Z,16.2
2019-03-10T13:51:03.113Z,16.2
2019-03-10T13:51:51.766Z,16.2
2019-03-10T13:52:42.121Z,16.1
2019-03-10T13:53:32.397Z,16.1
2019-03-10T13:54:23.038Z,16.1
2019-03-10T13:55:11.976Z,16.1
2019-03-10T13:56:52.955Z,16.1
2019-03-10T13:57:43.041Z,16.1
2019-03-10T13:58:32.778Z,16.1
2019-03-10T13:59:22.588Z,16.2
2019-03-10T14:00:12.936Z,16.2
2019-03-10T14:01:02.146Z,16.2
2019-03-10T14:01:51.958Z,16.3
2019-03-10T14:02:42.787Z,16.2
2019-03-10T14:03:32.013Z,16.2
2019-03-10T14:04:23.516Z,16.2
2019-03-10T14:05:13.311Z,16.2
2019-03-10T14:07:45.663Z,16.1
2019-03-10T14:08:35.168Z,16.1
2019-03-10T14:09:23.790Z,16.1
2019-03-10T14:10:17.543Z,16.1
2019-03-10T14:11:04.935Z,16.1
2019-03-10T14:11:54.275Z,16.1
2019-03-10T14:12:45.335Z,16.1
2019-03-10T14:13:35.765Z,16.1
2019-03-10T14:14:25.240Z,16.1
2019-03-10T14:15:14.041Z,16.1
2019-03-10T14:16:04.901Z,16.1
2019-03-10T14:16:54.691Z,16.1
2019-03-10T14:17:45.008Z,16.1
2019-03-10T14:18:36.377Z,16.1
2019-03-10T14:19:26.139Z,16.1
2019-03-10T14:20:16.225Z,16.1
2019-03-10T14:21:05.867Z,16.1
2019-03-10T14:21:56.081Z,16.1
2019-03-10T14:22:45.624Z,16.1
2019-03-10T14:23:35.954Z,16.1
2019-03-10T14:24:26.254Z,16
2019-03-10T14:25:16.344Z,16
2019-03-10T14:26:07.029Z,16
2019-03-10T14:26:56.152Z,16
2019-03-10T14:27:46.484Z,16
2019-03-10T14:28:35.975Z,15.9
2019-03-10T14:29:27.187Z,15.9
2019-03-10T14:30:15.902Z,16
2019-03-10T14:31:06.765Z,16
2019-03-10T14:31:56.799Z,16
2019-03-10T14:32:47.556Z,16
2019-03-10T14:33:37.020Z,16.1